Downs, IL (61736)

5:43 PM CST on February 08, 2016 (GMT -0600)
Brentwood Estates | | Change Station
CLOSE
Current Station
Personal Weather Station
Location: Bloomington, IL
Elevation: 873 ft
Nearby Weather Stations
Active Advisory: Special Statement

Elev 873 ft 40.42 °N, 88.89 °W | Updated 3 minutes ago

Snow
Snow
19.9 °F
Feels Like 12 °F
N
6.0
Wind Variable Wind from WNW
Gusts 9.0 mph

Today
High -- | Low -- °F
--% Chance of Precip.
Yesterday
High -- | Low -- °F
Precip. -- in
Pressure 29.88 in
Visibility 2.0 miles
Clouds Mostly Cloudy 1400 ft
Overcast 2600 ft
Windchill 12 °F
Dew Point 16 °F
Humidity 86%
Rainfall 0.00 in
Snow Depth Not available.
6:57 AM 5:21 PM
New Moon, 0% visible
METAR KBMI 082256Z 29014KT 2SM -SN BR BKN014 OVC026 M06/M08 A2982 RMK AO2 T10611083 P0000 SLP117
Pressure 29.88 in
Visibility 2.0 miles
Clouds Mostly Cloudy 1400 ft
Overcast 2600 ft
Windchill 12 °F
Dew Point 16 °F
Humidity 86%
Rainfall 0.00 in
Snow Depth Not available.
6:57 AM 5:21 PM
New Moon, 0% visible
METAR KBMI 082256Z 29014KT 2SM -SN BR BKN014 OVC026 M06/M08 A2982 RMK AO2 T10611083 P0000 SLP117

10-Day Weather Forecast

Almanac

Astronomy

Feb. 08, 2016 Rise Set
Actual Time
Civil Twilight
Nautical Twilight
Astronomical Twilight
Moon
Length of Visible Light
Length of Day
Tomorrow will be .
, % of the Moon is Illuminated

Today's Extremes

State Highs State Lows

Community

WunderPhotos

Upload Photos

1,891,527 photos uploaded!

WunderBlog® & News

Nearby

Air Quality

  Air Quality AQ Index Pollutant
Not available.

Snow Depth

Station Depth Elevation

Earthquake Activity

City Distance Mag. Time & Date
Minimum magnitude displayed is 2.5.

Coastal Water Temperatures

Place Temperature

Stations

Nearby Weather Stations

Station Location Temp. Windchill Dew Point Humidity Wind Precip. Elev Updated Type
                   

Watches & Warnings

Special Statement
Issued: 9:38 AM CST Feb. 8, 2016 – National Weather Service

Scattered snow showers will continue across central and southeast
Illinois through the afternoon. While accumulations will remain
minor... slick spots will develop on many area roadways as
temperatures fall through the 20s. Motorists are advised to drive
with caution. Slow down and plan on extra time to arrive at your
destination today.


Barnes

938 am CST Mon Feb 8 2016

Scattered snow showers will continue across central and southeast
Illinois through the afternoon. While accumulations will remain
minor... slick spots will develop on many area roadways as
temperatures fall through the 20s. Motorists are advised to drive
with caution. Slow down and plan on extra time to arrive at your
destination today.


Barnes